createdAt,value
2022-12-15T00:02:33.327Z,54.88
2022-12-15T00:05:21.210Z,54.91
2022-12-15T00:08:10.266Z,54.68
2022-12-15T00:10:56.282Z,54.71
2022-12-15T00:13:43.468Z,54.71
2022-12-15T00:16:30.906Z,54.82
2022-12-15T00:19:16.508Z,54.76
2022-12-15T00:22:02.254Z,54.76
2022-12-15T00:24:49.744Z,54.68
2022-12-15T00:27:35.916Z,54.66
2022-12-15T00:30:22.432Z,54.72
2022-12-15T00:33:07.775Z,54.56
2022-12-15T00:35:53.682Z,54.54
2022-12-15T00:38:44.533Z,54.57
2022-12-15T00:41:22.275Z,54.47
2022-12-15T00:44:13.377Z,54.49
2022-12-15T00:46:57.628Z,54.40
2022-12-15T00:49:46.040Z,54.51
2022-12-15T00:52:33.779Z,54.39
2022-12-15T00:55:19.905Z,54.42
2022-12-15T00:58:09.254Z,54.36
2022-12-15T01:00:54.619Z,54.24
2022-12-15T01:03:42.115Z,54.39
2022-12-15T01:06:30.812Z,54.21
2022-12-15T01:09:19.114Z,54.36
2022-12-15T01:12:05.600Z,54.20
2022-12-15T01:14:52.556Z,54.37
2022-12-15T01:17:38.720Z,54.29
2022-12-15T01:20:18.832Z,54.20
2022-12-15T01:22:48.056Z,54.28
2022-12-15T01:25:17.489Z,54.25
2022-12-15T01:27:46.193Z,54.24
2022-12-15T01:30:15.663Z,54.22
2022-12-15T01:32:46.048Z,54.18
2022-12-15T01:35:13.941Z,54.21
2022-12-15T01:37:40.993Z,54.04
2022-12-15T01:40:28.842Z,54.12
2022-12-15T01:42:55.764Z,54.04
2022-12-15T01:45:31.555Z,53.91
2022-12-15T01:48:04.630Z,53.93
2022-12-15T01:50:36.376Z,53.83
2022-12-15T01:53:03.879Z,53.91
2022-12-15T01:55:32.449Z,53.81
2022-12-15T01:58:04.112Z,53.72
2022-12-15T02:00:31.746Z,53.82
2022-12-15T02:03:01.291Z,53.71
2022-12-15T02:05:31.902Z,53.77
2022-12-15T02:08:00.176Z,53.94
2022-12-15T02:10:38.749Z,54.02
2022-12-15T02:13:19.823Z,53.90
2022-12-15T02:15:54.424Z,54.04
2022-12-15T02:18:57.412Z,54.10
2022-12-15T02:21:35.535Z,54.13
2022-12-15T02:24:26.499Z,54.25
2022-12-15T02:27:25.563Z,54.12
2022-12-15T02:30:21.376Z,54.25
2022-12-15T02:33:03.143Z,54.22
2022-12-15T02:35:50.178Z,54.23
2022-12-15T02:38:30.580Z,54.15
2022-12-15T02:41:03.218Z,54.28
2022-12-15T02:43:33.600Z,54.26
2022-12-15T02:46:22.939Z,54.34
2022-12-15T02:49:12.600Z,54.33
2022-12-15T02:51:45.449Z,54.38
2022-12-15T02:54:24.735Z,54.31
2022-12-15T02:57:11.433Z,54.27
2022-12-15T02:59:46.550Z,54.26
2022-12-15T03:02:14.608Z,54.29
2022-12-15T03:04:43.693Z,54.38
2022-12-15T03:07:11.345Z,54.44
2022-12-15T03:09:38.557Z,54.48
2022-12-15T03:12:06.002Z,54.44
2022-12-15T03:14:34.041Z,54.41
2022-12-15T03:17:01.018Z,54.38
2022-12-15T03:19:28.360Z,54.40
2022-12-15T03:21:55.491Z,54.42
2022-12-15T03:24:22.444Z,54.26
2022-12-15T03:26:50.285Z,54.45
2022-12-15T03:29:18.574Z,54.25
2022-12-15T03:31:46.147Z,54.37
2022-12-15T03:34:17.256Z,54.30
2022-12-15T03:36:44.468Z,54.33
2022-12-15T03:39:11.499Z,54.24
2022-12-15T03:41:38.628Z,54.32
2022-12-15T03:44:06.010Z,54.29
2022-12-15T03:46:33.216Z,54.20
2022-12-15T03:49:00.216Z,54.30
2022-12-15T03:51:27.254Z,54.27
2022-12-15T03:53:54.615Z,54.33
2022-12-15T03:56:21.586Z,54.40
2022-12-15T03:58:48.549Z,54.25
2022-12-15T04:01:21.698Z,54.38
2022-12-15T04:03:48.905Z,54.29
2022-12-15T04:06:15.806Z,54.19
2022-12-15T04:08:42.722Z,54.27
2022-12-15T04:11:09.701Z,54.28
2022-12-15T04:13:36.645Z,54.29
2022-12-15T04:16:04.071Z,54.29
2022-12-15T04:18:31.098Z,54.18
2022-12-15T04:20:58.019Z,54.18
2022-12-15T04:23:25.017Z,54.12
2022-12-15T04:26:10.532Z,54.22
2022-12-15T04:28:56.335Z,54.26
2022-12-15T04:31:51.347Z,54.25
2022-12-15T04:34:40.360Z,54.26
2022-12-15T04:37:30.155Z,54.18
2022-12-15T04:40:16.504Z,54.15
2022-12-15T04:43:05.593Z,54.19
2022-12-15T04:45:51.385Z,54.24
2022-12-15T04:48:37.030Z,54.15
2022-12-15T04:51:23.968Z,54.17
2022-12-15T04:54:09.650Z,54.18
2022-12-15T04:56:55.099Z,54.28
2022-12-15T04:59:40.941Z,54.13
2022-12-15T05:02:26.868Z,54.26
2022-12-15T05:05:12.487Z,54.26
2022-12-15T05:07:58.131Z,54.23
2022-12-15T05:10:43.821Z,54.19
2022-12-15T05:13:29.780Z,54.22
2022-12-15T05:16:16.700Z,54.23
2022-12-15T05:19:02.261Z,54.21
2022-12-15T05:21:47.921Z,54.23
2022-12-15T05:24:33.778Z,54.11
2022-12-15T05:27:19.240Z,54.21
2022-12-15T05:30:05.062Z,54.27
2022-12-15T05:32:33.450Z,54.21
2022-12-15T05:35:01.647Z,54.36
2022-12-15T05:37:28.585Z,54.15
2022-12-15T05:39:55.563Z,54.26
2022-12-15T05:42:22.506Z,54.31
2022-12-15T05:44:49.395Z,54.21
2022-12-15T05:47:16.774Z,54.11
2022-12-15T05:49:43.767Z,54.29
2022-12-15T05:52:10.704Z,54.23
2022-12-15T05:54:37.672Z,54.30
2022-12-15T05:57:04.639Z,54.33
2022-12-15T05:59:31.535Z,54.22
2022-12-15T06:01:58.553Z,54.24
2022-12-15T06:04:27.110Z,54.24
2022-12-15T06:06:54.110Z,54.12
2022-12-15T06:09:20.991Z,54.15
2022-12-15T06:11:48.058Z,54.27
2022-12-15T06:14:15.143Z,54.23
2022-12-15T06:16:51.061Z,54.23
2022-12-15T06:19:20.422Z,54.20
2022-12-15T06:21:47.489Z,54.15
2022-12-15T06:24:15.560Z,54.14
2022-12-15T06:26:43.603Z,54.13
2022-12-15T06:29:12.569Z,54.16
2022-12-15T06:31:40.996Z,54.21
2022-12-15T06:34:11.122Z,54.17
2022-12-15T06:36:39.233Z,54.22
2022-12-15T06:39:08.939Z,54.13
2022-12-15T06:41:36.157Z,54.17
2022-12-15T06:44:03.611Z,54.08
2022-12-15T06:46:32.913Z,54.01
2022-12-15T06:48:59.986Z,54.20
2022-12-15T06:51:28.100Z,54.22
2022-12-15T06:53:55.614Z,54.04
2022-12-15T06:56:44.831Z,54.02
2022-12-15T06:59:12.768Z,54.13
2022-12-15T07:01:40.071Z,54.20
2022-12-15T07:04:07.362Z,54.24
2022-12-15T07:06:37.016Z,54.18
2022-12-15T07:09:07.579Z,54.03
2022-12-15T07:11:35.869Z,54.03
2022-12-15T07:14:03.392Z,54.19
2022-12-15T07:16:31.279Z,54.01
2022-12-15T07:18:58.732Z,54.22
2022-12-15T07:21:25.710Z,54.13
2022-12-15T07:23:56.047Z,54.25
2022-12-15T07:26:24.385Z,54.19
2022-12-15T07:28:53.918Z,54.11
2022-12-15T07:31:22.160Z,54.07
2022-12-15T07:33:49.516Z,54.12
2022-12-15T07:36:16.653Z,53.98
2022-12-15T07:38:50.299Z,54.18
2022-12-15T07:41:20.699Z,54.03
2022-12-15T07:43:48.244Z,54.00
2022-12-15T07:46:15.958Z,54.10
2022-12-15T07:48:43.004Z,53.97
2022-12-15T07:51:17.390Z,54.08
2022-12-15T07:53:47.508Z,54.08
2022-12-15T07:56:15.674Z,54.14
2022-12-15T07:58:42.862Z,53.97
2022-12-15T08:01:12.651Z,53.97
2022-12-15T08:03:40.889Z,53.95
2022-12-15T08:06:13.929Z,53.96
2022-12-15T08:08:41.575Z,53.97
2022-12-15T08:11:10.347Z,53.99
2022-12-15T08:14:02.169Z,53.96
2022-12-15T08:16:26.025Z,54.24
2022-12-15T08:18:53.973Z,54.23
2022-12-15T08:21:21.166Z,54.18
2022-12-15T08:23:48.281Z,54.10
2022-12-15T08:26:18.033Z,54.09
2022-12-15T08:28:46.120Z,54.05
2022-12-15T08:31:19.177Z,54.04
2022-12-15T08:33:47.533Z,54.10
2022-12-15T08:36:17.909Z,54.04
2022-12-15T08:38:45.937Z,54.19
2022-12-15T08:41:17.658Z,54.16
2022-12-15T08:43:48.548Z,54.09
2022-12-15T08:46:18.088Z,54.12
2022-12-15T08:48:45.432Z,54.13
2022-12-15T08:51:13.970Z,54.07
2022-12-15T08:53:41.005Z,54.23
2022-12-15T08:56:14.187Z,54.08
2022-12-15T08:58:41.641Z,54.14
2022-12-15T09:01:14.884Z,53.99
2022-12-15T09:03:46.484Z,54.10
2022-12-15T09:06:24.268Z,54.10
2022-12-15T09:08:57.172Z,54.01
2022-12-15T09:11:25.605Z,53.96
2022-12-15T09:13:52.736Z,54.21
2022-12-15T09:16:21.341Z,54.10
2022-12-15T09:18:51.691Z,54.25
2022-12-15T09:21:22.655Z,54.20
2022-12-15T09:23:55.239Z,54.19
2022-12-15T09:26:23.861Z,54.28
2022-12-15T09:28:51.466Z,54.23
2022-12-15T09:31:22.148Z,54.29
2022-12-15T09:33:51.377Z,54.36
2022-12-15T09:36:18.474Z,54.36
2022-12-15T09:38:45.788Z,54.40
2022-12-15T09:41:15.546Z,54.21
2022-12-15T09:44:01.514Z,54.26
2022-12-15T09:46:43.841Z,54.36
2022-12-15T09:49:15.964Z,54.28
2022-12-15T09:51:58.065Z,54.18
2022-12-15T09:54:32.733Z,54.15
2022-12-15T09:57:08.371Z,54.15
2022-12-15T09:59:56.824Z,54.20
2022-12-15T10:02:42.629Z,54.09
2022-12-15T10:05:16.615Z,54.23
2022-12-15T10:07:46.645Z,54.15
2022-12-15T10:10:26.151Z,54.06
2022-12-15T10:13:02.220Z,54.17
2022-12-15T10:15:41.823Z,54.23
2022-12-15T10:18:22.929Z,54.09
2022-12-15T10:20:54.391Z,54.25
2022-12-15T10:23:21.791Z,54.11
2022-12-15T10:25:57.350Z,54.12
2022-12-15T10:28:51.302Z,54.24
2022-12-15T10:31:43.349Z,54.16
2022-12-15T10:34:24.624Z,54.15
2022-12-15T10:36:53.438Z,54.21
2022-12-15T10:39:21.731Z,54.19
2022-12-15T10:42:24.803Z,54.24
2022-12-15T10:44:55.008Z,54.27
2022-12-15T10:47:28.967Z,54.08
2022-12-15T10:50:19.545Z,54.14
2022-12-15T10:52:49.482Z,54.11
2022-12-15T10:55:32.318Z,54.11
2022-12-15T10:58:02.649Z,54.15
2022-12-15T11:00:32.020Z,54.12
2022-12-15T11:02:59.721Z,54.01
2022-12-15T11:05:27.343Z,54.14
2022-12-15T11:07:56.878Z,54.00
2022-12-15T11:10:53.839Z,54.09
2022-12-15T11:13:23.196Z,54.00
2022-12-15T11:15:51.859Z,54.02
2022-12-15T11:18:24.951Z,54.04
2022-12-15T11:21:02.407Z,54.10
2022-12-15T11:23:38.623Z,53.93
2022-12-15T11:26:20.516Z,53.97
2022-12-15T11:28:59.384Z,54.11
2022-12-15T11:31:49.224Z,54.06
2022-12-15T11:34:19.991Z,54.05
2022-12-15T11:37:01.602Z,54.02
2022-12-15T11:39:59.577Z,54.02
2022-12-15T11:42:41.317Z,54.06
2022-12-15T11:45:17.286Z,54.06
2022-12-15T11:47:48.306Z,54.06
2022-12-15T11:50:23.888Z,54.02
2022-12-15T11:53:04.433Z,54.02
2022-12-15T11:55:45.881Z,54.02
2022-12-15T11:58:51.684Z,54.04
2022-12-15T12:01:42.124Z,53.97
2022-12-15T12:04:24.661Z,53.99
2022-12-15T12:07:16.818Z,54.03
2022-12-15T12:10:09.920Z,54.02
2022-12-15T12:12:50.484Z,54.00
2022-12-15T12:15:29.795Z,54.02
2022-12-15T12:18:07.669Z,53.97
2022-12-15T12:20:50.306Z,54.06
2022-12-15T12:23:32.406Z,53.99
2022-12-15T12:26:15.764Z,54.05
2022-12-15T12:28:58.361Z,54.06
2022-12-15T12:32:04.796Z,54.00
2022-12-15T12:34:47.348Z,54.02
2022-12-15T12:37:42.386Z,53.93
2022-12-15T12:40:53.799Z,53.95
2022-12-15T12:43:50.335Z,53.93
2022-12-15T12:46:33.321Z,54.02
2022-12-15T12:49:08.398Z,53.96
2022-12-15T12:51:51.614Z,54.01
2022-12-15T12:54:37.118Z,54.05
2022-12-15T12:57:13.196Z,54.12
2022-12-15T13:00:06.644Z,54.13
2022-12-15T13:02:38.259Z,54.19
2022-12-15T13:05:26.918Z,54.24
2022-12-15T13:08:13.780Z,54.33
2022-12-15T13:10:50.666Z,54.31
2022-12-15T13:13:31.429Z,54.39
2022-12-15T13:16:26.920Z,54.41
2022-12-15T13:19:06.977Z,54.54
2022-12-15T13:21:45.817Z,54.61
2022-12-15T13:24:56.198Z,54.77
2022-12-15T13:27:24.126Z,54.82
2022-12-15T13:30:16.090Z,54.76
2022-12-15T13:32:49.063Z,54.75
2022-12-15T13:35:27.728Z,54.78
2022-12-15T13:38:04.101Z,54.92
2022-12-15T13:40:36.910Z,54.81
2022-12-15T13:43:03.820Z,55.05
2022-12-15T13:45:40.133Z,55.12
2022-12-15T13:48:29.166Z,55.20
2022-12-15T13:51:11.799Z,55.15
2022-12-15T13:53:45.504Z,55.20
2022-12-15T13:56:26.838Z,55.36
2022-12-15T13:59:02.573Z,55.32
2022-12-15T14:01:33.271Z,55.29
2022-12-15T14:04:07.350Z,55.26
2022-12-15T14:06:44.526Z,55.31
2022-12-15T14:09:15.739Z,55.27
2022-12-15T14:11:53.948Z,55.39
2022-12-15T14:14:48.999Z,55.56
2022-12-15T14:17:18.732Z,55.62
2022-12-15T14:19:50.811Z,55.48
2022-12-15T14:22:28.530Z,55.66
2022-12-15T14:25:03.902Z,55.63
2022-12-15T14:27:33.482Z,55.82
2022-12-15T14:30:38.776Z,55.83
2022-12-15T14:33:15.206Z,55.76
2022-12-15T14:35:49.459Z,55.60
2022-12-15T14:38:33.327Z,55.84
2022-12-15T14:41:04.092Z,55.83
2022-12-15T14:43:38.991Z,55.81
2022-12-15T14:46:17.811Z,55.77
2022-12-15T14:48:59.912Z,55.86
2022-12-15T14:51:30.011Z,55.87
2022-12-15T14:53:57.150Z,55.70
2022-12-15T14:59:20.457Z,55.78
2022-12-15T15:01:59.839Z,55.78
2022-12-15T15:03:06.094Z,55.81
2022-12-15T15:04:31.604Z,55.68
2022-12-15T15:07:01.837Z,55.72
2022-12-15T15:09:38.512Z,55.91
2022-12-15T15:12:27.561Z,55.85
2022-12-15T15:15:06.823Z,55.77
2022-12-15T15:17:33.906Z,55.87
2022-12-15T15:20:22.559Z,55.95
2022-12-15T15:23:04.864Z,55.88
2022-12-15T15:25:40.725Z,55.97
2022-12-15T15:28:19.929Z,55.94
2022-12-15T15:30:48.515Z,55.98
2022-12-15T15:33:16.586Z,55.93
2022-12-15T15:35:45.501Z,56.04
2022-12-15T15:38:20.339Z,55.91
2022-12-15T15:40:55.012Z,55.91
2022-12-15T15:43:23.781Z,56.03
2022-12-15T15:46:13.065Z,55.92
2022-12-15T15:48:45.948Z,56.01
2022-12-15T15:51:13.175Z,56.00
2022-12-15T15:53:41.431Z,55.89
2022-12-15T15:56:14.001Z,55.98
2022-12-15T15:58:41.183Z,56.06
2022-12-15T16:01:13.119Z,56.15
2022-12-15T16:03:42.179Z,56.21
2022-12-15T16:06:20.210Z,55.96
2022-12-15T16:08:51.845Z,56.04
2022-12-15T16:11:20.339Z,56.00
2022-12-15T16:13:47.666Z,55.92
2022-12-15T16:16:30.575Z,56.10
2022-12-15T16:18:58.070Z,56.13
2022-12-15T16:21:27.847Z,56.04
2022-12-15T16:23:57.227Z,56.15
2022-12-15T16:26:33.086Z,56.21
2022-12-15T16:29:00.285Z,56.13
2022-12-15T16:31:40.937Z,56.15
2022-12-15T16:34:09.967Z,56.20
2022-12-15T16:36:37.378Z,56.14
2022-12-15T16:39:05.010Z,56.09
2022-12-15T16:41:34.297Z,56.18
2022-12-15T16:44:03.049Z,56.18
2022-12-15T16:46:30.296Z,56.15
2022-12-15T16:48:58.008Z,56.15
2022-12-15T16:51:42.265Z,56.09
2022-12-15T16:54:17.048Z,56.09
2022-12-15T16:56:44.738Z,56.24
2022-12-15T16:59:33.116Z,56.18
2022-12-15T17:02:01.466Z,56.18
2022-12-15T17:04:33.952Z,56.16
2022-12-15T17:07:03.108Z,56.15
2022-12-15T17:09:30.176Z,56.18
2022-12-15T17:11:58.923Z,56.15
2022-12-15T17:14:26.203Z,56.18
2022-12-15T17:16:55.885Z,56.18
2022-12-15T17:19:24.026Z,56.16
2022-12-15T17:21:55.339Z,56.20
2022-12-15T17:24:23.661Z,56.08
2022-12-15T17:26:55.829Z,56.17
2022-12-15T17:29:27.326Z,56.14
2022-12-15T17:31:56.500Z,56.08
2022-12-15T17:34:33.588Z,56.04
2022-12-15T17:37:06.876Z,56.12
2022-12-15T17:39:35.982Z,56.07
2022-12-15T17:42:04.658Z,56.24
2022-12-15T17:44:37.297Z,56.16
2022-12-15T17:47:08.736Z,56.23
2022-12-15T17:49:39.234Z,56.24
2022-12-15T17:52:29.858Z,56.44
2022-12-15T17:54:58.002Z,56.40
2022-12-15T17:57:25.955Z,56.41
2022-12-15T17:59:54.192Z,56.48
2022-12-15T18:02:22.576Z,56.55
2022-12-15T18:04:50.797Z,56.76
2022-12-15T18:07:23.317Z,56.64
2022-12-15T18:09:52.611Z,56.73
2022-12-15T18:12:27.059Z,56.82
2022-12-15T18:14:55.716Z,56.82
2022-12-15T18:17:24.221Z,56.84
2022-12-15T18:19:51.680Z,56.80
2022-12-15T18:22:28.458Z,56.83
2022-12-15T18:24:56.664Z,57.01
2022-12-15T18:27:29.254Z,56.88
2022-12-15T18:29:59.790Z,57.04
2022-12-15T18:32:30.090Z,57.01
2022-12-15T18:34:58.579Z,56.98
2022-12-15T18:37:26.227Z,56.95
2022-12-15T18:39:57.232Z,56.89
2022-12-15T18:42:29.799Z,56.94
2022-12-15T18:45:00.702Z,56.84
2022-12-15T18:47:28.505Z,56.85
2022-12-15T18:49:56.457Z,56.85
2022-12-15T18:52:30.063Z,56.82
2022-12-15T18:55:00.830Z,56.90
2022-12-15T18:57:33.847Z,56.84
2022-12-15T19:00:32.013Z,56.70
2022-12-15T19:03:03.283Z,56.73
2022-12-15T19:05:32.923Z,56.64
2022-12-15T19:08:27.913Z,56.70
2022-12-15T19:11:31.983Z,56.67
2022-12-15T19:14:00.994Z,56.67
2022-12-15T19:16:52.951Z,56.63
2022-12-15T19:19:38.971Z,56.56
2022-12-15T19:22:30.787Z,56.51
2022-12-15T19:25:00.826Z,56.49
2022-12-15T19:27:35.853Z,56.44
2022-12-15T19:30:17.967Z,56.45
2022-12-15T19:32:58.185Z,56.43
2022-12-15T19:35:28.335Z,56.45
2022-12-15T19:38:01.800Z,56.38
2022-12-15T19:40:45.371Z,56.39
2022-12-15T19:43:24.564Z,56.25
2022-12-15T19:45:54.837Z,56.25
2022-12-15T19:48:26.798Z,56.18
2022-12-15T19:51:00.326Z,56.24
2022-12-15T19:53:31.797Z,56.20
2022-12-15T19:56:07.122Z,56.15
2022-12-15T19:58:53.812Z,56.13
2022-12-15T20:01:23.708Z,55.98
2022-12-15T20:03:59.885Z,56.00
2022-12-15T20:06:39.609Z,56.25
2022-12-15T20:09:18.465Z,56.75
2022-12-15T20:11:51.684Z,57.30
2022-12-15T20:14:26.288Z,57.91
2022-12-15T20:16:56.120Z,58.39
2022-12-15T20:19:31.499Z,58.67
2022-12-15T20:22:05.356Z,59.00
2022-12-15T20:24:34.371Z,59.09
2022-12-15T20:27:10.183Z,59.34
2022-12-15T20:29:41.305Z,59.87
2022-12-15T20:32:22.919Z,60.14
2022-12-15T20:34:50.203Z,60.02
2022-12-15T20:37:30.378Z,59.77
2022-12-15T20:39:59.856Z,59.53
2022-12-15T20:42:34.009Z,59.42
2022-12-15T20:45:02.125Z,59.31
2022-12-15T20:47:32.116Z,58.99
2022-12-15T20:50:00.589Z,58.49
2022-12-15T20:52:30.080Z,58.23
2022-12-15T20:54:57.994Z,57.87
2022-12-15T20:57:25.823Z,57.85
2022-12-15T20:59:58.420Z,57.64
2022-12-15T21:02:30.346Z,57.40
2022-12-15T21:04:59.960Z,57.33
2022-12-15T21:07:36.701Z,57.21
2022-12-15T21:10:05.183Z,57.08
2022-12-15T21:12:34.244Z,56.99
2022-12-15T21:15:05.825Z,56.99
2022-12-15T21:17:36.327Z,56.98
2022-12-15T21:20:10.709Z,56.92
2022-12-15T21:22:41.883Z,56.85
2022-12-15T21:25:37.485Z,56.73
2022-12-15T21:28:12.165Z,56.73
2022-12-15T21:30:39.825Z,56.76
2022-12-15T21:33:09.267Z,56.66
2022-12-15T21:35:40.502Z,56.61
2022-12-15T21:38:32.020Z,56.54
2022-12-15T21:41:05.366Z,56.65
2022-12-15T21:43:35.744Z,56.65
2022-12-15T21:46:14.682Z,56.50
2022-12-15T21:49:01.263Z,56.49
2022-12-15T21:51:34.166Z,56.40
2022-12-15T21:57:05.113Z,56.32
2022-12-15T21:59:39.704Z,56.33
2022-12-15T22:02:38.877Z,56.37
2022-12-15T22:05:32.919Z,56.39
2022-12-15T22:08:13.264Z,56.29
2022-12-15T22:10:40.689Z,56.13
2022-12-15T22:13:16.145Z,56.24
2022-12-15T22:15:54.911Z,56.30
2022-12-15T22:18:24.326Z,56.21
2022-12-15T22:20:55.556Z,56.36
2022-12-15T22:23:31.055Z,56.17
2022-12-15T22:26:11.926Z,56.18
2022-12-15T22:28:39.444Z,56.20
2022-12-15T22:31:07.424Z,56.13
2022-12-15T22:33:38.024Z,56.22
2022-12-15T22:36:05.517Z,56.18
2022-12-15T22:38:35.887Z,56.19
2022-12-15T22:41:05.701Z,56.19
2022-12-15T22:43:41.930Z,56.13
2022-12-15T22:46:13.587Z,56.10
2022-12-15T22:48:45.403Z,56.16
2022-12-15T22:51:14.987Z,56.09
2022-12-15T22:53:44.322Z,56.05
2022-12-15T22:56:22.749Z,56.05
2022-12-15T22:58:57.360Z,56.02
2022-12-15T23:01:26.348Z,56.02
2022-12-15T23:03:54.695Z,56.05
2022-12-15T23:06:26.757Z,55.99
2022-12-15T23:08:55.951Z,55.99
2022-12-15T23:11:39.653Z,55.94
2022-12-15T23:14:22.233Z,55.81
2022-12-15T23:16:50.844Z,55.92
2022-12-15T23:19:24.239Z,55.86
2022-12-15T23:21:52.166Z,55.80
2022-12-15T23:24:20.396Z,55.87
2022-12-15T23:26:48.832Z,55.82
2022-12-15T23:29:15.939Z,55.76
2022-12-15T23:31:43.489Z,55.85
2022-12-15T23:34:12.702Z,55.82
2022-12-15T23:36:39.874Z,55.84
2022-12-15T23:39:07.460Z,56.03
2022-12-15T23:41:36.551Z,55.85
2022-12-15T23:44:09.982Z,55.88
2022-12-15T23:46:37.611Z,55.79
2022-12-15T23:49:11.881Z,55.79
2022-12-15T23:51:40.640Z,55.75
2022-12-15T23:54:08.909Z,55.78
2022-12-15T23:56:39.394Z,55.71
2022-12-15T23:59:08.200Z,55.68
